Time;durP1;ratioP1;P1;durP2;ratioP2;P2;SDS_P1;SDS_P2;PMS_P1;PMS_P2;Temp;Humidity;BMP_temperature;BMP_pressure;BME280_temperature;BME280_humidity;BME280_pressure;Samples;Min_cycle;Max_cycle;Signal;HPM_P1;HPM_P2
2021/03/09 00:00:41;;;;;;;72.40;40.73;;;6.80;99.90;;;7.15;84.15;101822.88;4917254;29;20072;-76
2021/03/09 00:03:09;;;;;;;73.90;40.47;;;6.80;99.90;;;7.17;84.21;101818.53;4917108;29;20051;-76
2021/03/09 00:05:37;;;;;;;68.37;40.40;;;6.90;99.90;;;7.14;84.02;101823.72;4917164;29;20138;-77
2021/03/09 00:08:05;;;;;;;72.40;40.17;;;6.90;99.90;;;7.12;84.11;101814.91;4917181;29;20084;-76
2021/03/09 00:10:32;;;;;;;72.60;40.23;;;6.90;99.90;;;7.20;84.04;101816.00;4916435;29;20395;-77
2021/03/09 00:13:00;;;;;;;70.23;39.77;;;6.90;99.90;;;7.12;84.41;101812.28;4917074;29;20071;-76
2021/03/09 00:15:27;;;;;;;66.97;39.53;;;6.80;99.90;;;7.27;84.30;101799.50;4900023;29;20075;-76
2021/03/09 00:17:54;;;;;;;66.30;38.53;;;6.90;99.90;;;7.19;84.51;101806.31;4917206;29;20490;-74
2021/03/09 00:20:23;;;;;;;74.10;41.37;;;6.90;99.90;;;7.15;84.10;101799.19;4916946;29;20080;-74
2021/03/09 00:22:50;;;;;;;71.50;40.03;;;6.90;99.90;;;7.13;84.34;101803.53;4916861;29;20104;-73
2021/03/09 00:25:18;;;;;;;72.37;41.50;;;6.90;99.90;;;7.20;84.58;101805.47;4916887;29;20521;-74
2021/03/09 00:27:45;;;;;;;74.67;40.67;;;6.90;99.90;;;7.22;84.45;101791.47;4917365;29;20051;-72
2021/03/09 00:30:15;;;;;;;75.43;42.30;;;6.90;99.90;;;7.10;84.97;101796.44;4916767;29;20040;-74
2021/03/09 00:32:42;;;;;;;71.30;41.17;;;6.90;99.90;;;6.43;84.79;101677.31;4916988;29;20112;-74
2021/03/09 00:35:12;;;;;;;79.63;42.77;;;6.80;99.90;;;7.09;84.92;101797.31;4916884;29;20473;-74
2021/03/09 00:37:40;;;;;;;72.73;41.67;;;6.90;99.90;;;7.16;84.97;101817.63;4917028;29;20502;-74
2021/03/09 00:40:09;;;;;;;77.57;43.07;;;6.90;99.90;;;7.07;84.85;101791.13;4916657;29;20063;-74
2021/03/09 00:42:36;;;;;;;74.97;42.70;;;6.90;99.90;;;7.04;85.03;101787.53;4916547;29;20052;-74
2021/03/09 00:45:05;;;;;;;78.27;43.90;;;6.80;99.90;;;6.86;85.14;101759.03;4916547;29;20079;-73
2021/03/09 00:47:51;;;;;;;82.20;43.70;;;6.80;99.90;;;6.98;85.35;101775.13;4916910;29;20115;-74
2021/03/09 00:50:19;;;;;;;80.17;42.97;;;6.80;99.90;;;6.92;85.63;101776.69;4899735;29;20047;-74
2021/03/09 00:52:47;;;;;;;81.83;43.43;;;6.70;99.90;;;6.89;85.79;101774.00;4916575;29;20130;-74
2021/03/09 00:55:15;;;;;;;85.23;45.50;;;6.70;99.90;;;6.95;85.86;101776.78;4916422;29;20063;-74
2021/03/09 00:57:43;;;;;;;81.07;43.80;;;6.70;99.90;;;6.91;85.88;101777.56;4916363;29;20111;-72
2021/03/09 01:00:12;;;;;;;80.27;45.20;;;6.70;99.90;;;6.98;85.87;101775.13;4916598;29;20410;-74
2021/03/09 01:02:39;;;;;;;83.93;44.83;;;6.70;99.90;;;6.95;85.67;101774.16;4916425;29;20490;-74
2021/03/09 01:05:08;;;;;;;80.00;44.27;;;6.70;99.90;;;6.97;86.20;101765.44;4899506;29;20056;-74
2021/03/09 01:07:35;;;;;;;78.40;44.03;;;6.70;99.90;;;7.00;85.70;101768.16;4916602;29;20442;-74
2021/03/09 01:10:04;;;;;;;78.37;42.40;;;6.70;99.90;;;6.96;86.14;101768.03;4916315;29;20119;-73
2021/03/09 01:12:31;;;;;;;82.43;43.67;;;6.70;99.90;;;6.98;86.17;101755.81;4916478;29;20048;-74
2021/03/09 01:14:59;;;;;;;81.13;44.77;;;6.80;99.90;;;6.88;86.49;101757.31;4916471;29;20112;-72
2021/03/09 01:17:26;;;;;;;77.27;42.63;;;6.70;99.90;;;6.91;86.71;101764.41;4916489;29;20459;-73
2021/03/09 01:19:54;;;;;;;81.03;44.97;;;6.70;99.90;;;6.92;86.92;101748.66;4916327;29;20147;-72
2021/03/09 01:22:21;;;;;;;82.47;45.60;;;6.70;99.90;;;7.01;86.64;101756.75;4918162;29;20131;-73
2021/03/09 01:24:48;;;;;;;83.37;44.50;;;6.70;99.90;;;7.12;86.40;101751.78;4920121;29;20514;-73
2021/03/09 01:27:17;;;;;;;79.40;44.83;;;6.90;99.90;;;7.18;86.30;101738.78;4920045;29;20443;-73
2021/03/09 01:29:44;;;;;;;78.97;43.97;;;6.90;99.90;;;7.20;86.05;101752.84;4903072;29;20083;-73
2021/03/09 01:32:12;;;;;;;79.57;44.43;;;6.90;99.90;;;7.17;86.29;101744.88;4919969;29;20052;-73
2021/03/09 01:34:39;;;;;;;87.40;46.57;;;6.90;99.90;;;7.22;86.40;101743.22;4903030;29;20051;-73
2021/03/09 01:37:07;;;;;;;82.00;45.33;;;7.00;99.90;;;7.25;86.22;101743.31;4919821;29;20463;-72
2021/03/09 01:39:34;;;;;;;81.60;44.07;;;7.00;99.90;;;7.09;86.65;101710.50;4919975;29;20075;-73
2021/03/09 01:42:02;;;;;;;86.70;45.20;;;6.90;99.90;;;7.11;86.78;101729.84;4919997;29;20048;-72
2021/03/09 01:44:30;;;;;;;84.10;45.63;;;6.90;99.90;;;7.25;86.70;101738.03;4919787;29;20152;-72
2021/03/09 01:47:01;;;;;;;84.67;46.43;;;7.00;99.90;;;7.32;86.56;101734.69;4919669;29;20036;-72
2021/03/09 01:49:33;;;;;;;89.43;47.58;;;7.00;99.90;;;7.30;86.58;101732.03;4919563;29;20048;-72
2021/03/09 01:52:01;;;;;;;88.20;47.53;;;7.00;99.90;;;7.25;86.87;101717.91;4919808;29;20107;-72
2021/03/09 01:54:29;;;;;;;89.63;47.63;;;7.00;99.90;;;7.37;86.49;101727.81;4919701;29;20075;-73
2021/03/09 01:56:56;;;;;;;90.83;48.30;;;7.10;99.90;;;7.37;86.67;101725.16;4919399;29;20100;-72
2021/03/09 01:59:26;;;;;;;89.50;46.88;;;7.10;99.90;;;7.40;86.36;101714.69;4919558;29;20482;-73
2021/03/09 02:01:55;;;;;;;85.97;46.60;;;7.20;99.90;;;7.50;86.24;101719.31;4902499;29;20052;-72
2021/03/09 02:04:23;;;;;;;83.23;45.63;;;7.20;99.90;;;7.56;86.17;101714.19;4919595;29;20468;-72
2021/03/09 02:06:50;;;;;;;86.00;47.20;;;7.30;99.90;;;7.58;86.20;101707.22;4902496;29;20048;-72
2021/03/09 02:09:19;;;;;;;83.30;46.23;;;7.30;99.90;;;7.60;85.73;101704.59;4919376;29;20124;-72
2021/03/09 02:11:56;;;;;;;80.55;44.80;;;7.40;99.90;;;7.57;85.68;101684.34;4919384;29;20048;-72
2021/03/09 02:14:31;;;;;;;80.80;44.97;;;7.40;99.90;;;7.62;85.99;101695.00;4919132;29;20048;-71
2021/03/09 02:17:08;;;;;;;84.63;45.53;;;7.30;99.90;;;7.60;85.66;101692.34;4919277;29;20422;-71
2021/03/09 02:20:23;;;;;;;84.88;46.60;;;7.40;99.90;;;7.61;86.09;101678.28;4919396;29;20391;-71
2021/03/09 02:23:48;;;;;;;93.57;47.63;;;7.30;99.90;;;7.58;86.31;101677.34;4918680;29;20049;-71
2021/03/09 02:26:47;;;;;;;87.17;46.00;;;7.30;99.90;;;7.61;86.35;101675.66;4919121;29;20040;-71
2021/03/09 02:29:35;;;;;;;89.57;46.72;;;7.30;99.90;;;7.68;86.43;101668.78;4918813;29;20454;-72
2021/03/09 02:32:05;;;;;;;87.40;46.22;;;7.30;99.90;;;7.60;86.54;101673.00;4919123;29;20044;-72
2021/03/09 02:34:41;;;;;;;80.22;45.88;;;7.30;99.90;;;7.71;86.33;101668.84;4901496;29;20506;-72
2021/03/09 02:37:12;;;;;;;94.43;48.43;;;7.40;99.90;;;7.65;86.37;101671.34;4901874;29;20056;-72
2021/03/09 02:39:45;;;;;;;94.70;50.13;;;7.40;99.90;;;7.71;86.26;101669.72;4918726;29;20174;-72
2021/03/09 02:42:22;;;;;;;89.40;47.47;;;7.40;99.90;;;7.84;86.54;101661.22;4919044;29;20040;-71
2021/03/09 02:44:53;;;;;;;84.37;46.90;;;7.50;99.90;;;7.86;86.52;101656.84;4918684;29;20107;-72
2021/03/09 02:47:22;;;;;;;88.32;47.65;;;7.60;99.90;;;7.78;86.43;101653.19;4918673;29;20079;-72
2021/03/09 02:49:51;;;;;;;90.85;48.35;;;7.60;99.90;;;7.65;86.54;101666.06;4918528;29;20048;-72
2021/03/09 02:52:22;;;;;;;96.83;50.47;;;7.50;99.90;;;7.76;87.01;101639.09;4918546;29;20387;-71
2021/03/09 02:54:52;;;;;;;89.87;49.23;;;7.50;99.90;;;7.71;86.96;101619.72;4918691;29;20472;-72
2021/03/09 02:57:21;;;;;;;91.85;49.45;;;7.60;99.90;;;7.84;87.06;101642.78;4901503;29;20079;-72
2021/03/09 02:59:50;;;;;;;91.50;49.20;;;7.60;99.90;;;7.81;86.82;101637.47;4901587;29;20067;-71
2021/03/09 03:02:21;;;;;;;95.13;51.60;;;7.60;99.90;;;7.90;87.20;101640.25;4901280;29;20507;-70
2021/03/09 03:04:50;;;;;;;98.50;51.17;;;7.60;99.90;;;7.79;87.28;101635.66;4918602;29;20075;-71
2021/03/09 03:07:19;;;;;;;90.72;48.60;;;7.60;99.90;;;7.89;87.29;101649.03;4918268;29;20048;-70
2021/03/09 03:09:47;;;;;;;89.63;49.63;;;7.60;99.90;;;7.91;87.48;101617.44;4901372;29;20451;-73
2021/03/09 03:12:15;;;;;;;90.77;48.23;;;7.70;99.90;;;7.32;87.29;101513.66;4901490;29;20490;-74
2021/03/09 03:14:44;;;;;;;91.72;50.65;;;7.70;99.90;;;7.89;86.86;101599.00;4918171;29;20070;-72
2021/03/09 03:17:14;;;;;;;86.57;48.58;;;7.70;99.90;;;8.19;86.64;101628.50;4917821;29;20064;-72
2021/03/09 03:19:50;;;;;;;88.28;48.47;;;7.80;99.90;;;8.17;86.18;101611.78;4918172;29;20048;-71
2021/03/09 03:22:19;;;;;;;87.13;49.20;;;7.90;99.90;;;8.32;86.07;101620.84;4901047;29;20081;-72
2021/03/09 03:24:48;;;;;;;94.88;49.75;;;8.00;99.90;;;8.39;86.21;101615.69;4918029;29;20060;-71
2021/03/09 03:27:18;;;;;;;91.45;49.80;;;8.00;99.90;;;8.27;86.19;101609.31;4917856;29;20095;-72
2021/03/09 03:29:46;;;;;;;93.60;47.90;;;8.00;99.90;;;8.30;86.23;101610.28;4918079;29;20044;-72
2021/03/09 03:32:15;;;;;;;87.43;50.33;;;8.00;99.90;;;8.39;86.42;101604.25;4917808;29;20106;-72
2021/03/09 03:34:44;;;;;;;96.03;52.83;;;8.10;99.90;;;8.39;86.05;101602.50;4900901;29;20052;-71
2021/03/09 03:37:14;;;;;;;87.22;50.58;;;8.10;99.90;;;8.47;86.27;101605.25;4917679;29;20044;-72
2021/03/09 03:39:42;;;;;;;92.00;51.58;;;8.10;99.90;;;8.39;86.35;101605.16;4917742;29;20039;-72
2021/03/09 03:42:10;;;;;;;93.47;52.25;;;8.10;99.90;;;8.51;86.56;101597.44;4917437;29;20072;-72
2021/03/09 03:44:38;;;;;;;94.07;52.70;;;8.20;99.90;;;8.63;86.23;101596.75;4917183;29;20040;-72
2021/03/09 03:47:05;;;;;;;87.70;51.20;;;8.30;99.90;;;8.72;85.43;101594.22;4917213;29;20044;-71
2021/03/09 03:49:33;;;;;;;81.95;48.00;;;8.40;99.90;;;8.67;85.45;101599.44;4900483;29;20111;-72
2021/03/09 03:52:09;;;;;;;75.65;43.58;;;8.40;99.90;;;8.66;86.12;101597.66;4917430;29;20098;-72
2021/03/09 03:54:49;;;;;;;71.07;43.15;;;8.40;99.90;;;8.69;86.39;101596.84;4900397;29;20088;-71
2021/03/09 03:57:23;;;;;;;71.40;43.20;;;8.40;99.90;;;8.56;86.79;101589.56;4917437;29;20060;-70
2021/03/09 03:59:57;;;;;;;69.07;40.55;;;8.30;99.90;;;8.48;86.55;101554.34;4917326;29;20495;-72
2021/03/09 04:02:27;;;;;;;58.60;37.70;;;8.30;99.90;;;8.63;86.48;101594.09;4917339;29;20095;-71
2021/03/09 04:04:56;;;;;;;56.70;36.83;;;8.30;99.90;;;7.91;86.75;101472.59;4900188;29;20059;-72
2021/03/09 04:07:27;;;;;;;54.83;36.30;;;8.30;99.90;;;8.52;86.90;101593.03;4917172;29;20051;-71
2021/03/09 04:09:56;;;;;;;56.95;36.03;;;8.30;99.90;;;8.56;87.28;101585.19;4917316;29;20071;-72
2021/03/09 04:12:28;;;;;;;57.70;37.00;;;8.30;99.90;;;8.48;87.79;101578.06;4900217;29;20168;-72
2021/03/09 04:14:59;;;;;;;56.83;36.40;;;8.30;99.90;;;8.29;87.97;101560.16;4917242;29;20047;-72
2021/03/09 04:17:28;;;;;;;53.55;35.22;;;8.30;99.90;;;8.45;88.16;101586.78;4916811;29;20064;-71
2021/03/09 04:19:57;;;;;;;66.40;34.95;;;8.20;99.90;;;8.31;88.29;101566.34;4916918;29;20451;-71
2021/03/09 04:22:26;;;;;;;56.05;34.40;;;8.30;99.90;;;8.38;88.92;101592.81;4917181;29;20052;-71
2021/03/09 04:24:55;;;;;;;58.30;35.55;;;8.10;99.90;;;8.26;89.45;101581.19;4916903;29;20056;-70
2021/03/09 04:27:23;;;;;;;58.72;36.10;;;8.10;99.90;;;8.17;90.16;101585.41;4916747;29;20052;-71
2021/03/09 04:29:53;;;;;;;59.88;35.50;;;8.00;99.90;;;8.28;90.32;101592.66;4916799;29;20502;-71
2021/03/09 04:32:21;;;;;;;60.60;35.87;;;8.00;99.90;;;7.44;90.58;101461.25;4917017;29;20075;-71
2021/03/09 04:34:50;;;;;;;64.10;36.58;;;8.00;99.90;;;7.96;90.62;101556.09;4917029;29;20047;-71
2021/03/09 04:37:36;;;;;;;60.53;37.58;;;7.90;99.90;;;8.11;91.08;101585.31;4916882;29;20135;-71
2021/03/09 04:40:07;;;;;;;60.42;37.63;;;7.90;99.90;;;8.11;91.13;101587.94;4916744;29;20425;-71
2021/03/09 04:42:35;;;;;;;58.83;36.20;;;7.90;99.90;;;8.06;91.85;101579.09;4916628;29;20088;-71
2021/03/09 04:45:03;;;;;;;65.40;35.15;;;7.90;99.90;;;8.09;91.60;101579.13;4916540;29;20107;-72
2021/03/09 04:47:33;;;;;;;64.43;36.42;;;7.90;99.90;;;8.11;91.79;101587.94;4899706;29;20056;-71
2021/03/09 04:50:01;;;;;;;65.15;34.58;;;7.90;99.90;;;8.07;92.20;101588.75;4916663;29;20095;-71
2021/03/09 04:52:29;;;;;;;62.13;35.10;;;7.90;99.90;;;8.20;92.24;101588.13;4916530;29;20445;-71
2021/03/09 04:54:57;;;;;;;59.90;32.83;;;8.00;99.90;;;8.21;91.81;101589.00;4916583;29;20134;-71
2021/03/09 04:57:37;;;;;;;54.20;32.08;;;7.90;99.90;;;8.21;91.94;101589.00;4916213;29;20051;-72
2021/03/09 05:00:08;;;;;;;55.38;33.28;;;8.00;99.90;;;8.20;91.62;101593.41;4899691;29;20083;-72
2021/03/09 05:02:42;;;;;;;55.65;32.65;;;8.00;99.90;;;8.29;91.61;101594.41;4916603;29;20697;-72
2021/03/09 05:05:11;;;;;;;58.92;31.73;;;8.10;99.90;;;8.15;91.62;101597.69;4916428;29;20048;-72
2021/03/09 05:07:40;;;;;;;52.10;31.35;;;8.00;99.90;;;8.21;92.13;101591.63;4916328;29;20126;-67
2021/03/09 05:10:09;;;;;;;54.30;31.73;;;8.00;99.90;;;8.25;91.63;101597.84;4916342;29;20104;-69
2021/03/09 05:12:40;;;;;;;60.42;32.50;;;8.00;99.90;;;8.09;92.01;101600.22;4916467;29;20088;-73
2021/03/09 05:15:10;;;;;;;61.72;30.58;;;7.90;99.90;;;8.01;92.44;101593.91;4916423;29;20048;-71
2021/03/09 05:17:38;;;;;;;52.08;30.00;;;7.80;99.90;;;7.78;92.64;101549.63;4899206;29;20083;-71
2021/03/09 05:20:08;;;;;;;49.03;29.20;;;7.90;99.90;;;8.10;92.70;101606.38;4899097;29;20115;-69
2021/03/09 05:22:36;;;;;;;52.83;30.17;;;7.90;99.90;;;8.26;92.54;101602.28;4916280;29;20044;-69
2021/03/09 05:25:04;;;;;;;49.58;29.98;;;8.00;99.90;;;8.06;92.47;101586.09;4916189;29;20510;-70
2021/03/09 05:27:32;;;;;;;55.97;30.45;;;8.00;99.90;;;8.19;92.61;101609.16;4916208;29;20495;-70
2021/03/09 05:30:00;;;;;;;48.47;28.58;;;8.00;99.90;;;8.31;92.07;101616.41;4899288;29;20060;-69
2021/03/09 05:32:27;;;;;;;56.58;29.25;;;8.10;99.90;;;8.26;92.35;101612.81;4916127;29;20051;-70
2021/03/09 05:34:55;;;;;;;55.88;28.85;;;8.00;99.90;;;8.15;92.86;101613.50;4899094;29;20062;-70
2021/03/09 05:37:22;;;;;;;46.75;29.15;;;8.00;99.90;;;8.24;93.04;101612.78;4916304;29;20119;-70
2021/03/09 05:39:50;;;;;;;51.05;28.67;;;8.00;99.90;;;7.85;92.82;101548.84;4916109;29;20048;-70
2021/03/09 05:42:17;;;;;;;47.08;27.10;;;8.00;99.90;;;8.11;93.10;101600.22;4916092;29;20083;-70
2021/03/09 05:44:46;;;;;;;49.60;27.48;;;8.00;99.90;;;8.36;92.98;101617.41;4916051;29;20040;-70
2021/03/09 05:47:15;;;;;;;43.67;23.50;;;8.10;99.90;;;8.22;92.10;101614.50;4915935;29;20044;-70
2021/03/09 05:49:46;;;;;;;47.58;24.02;;;8.10;99.90;;;8.06;92.76;101597.53;4916351;29;20371;-70
2021/03/09 05:52:17;;;;;;;44.80;23.38;;;8.00;99.90;;;8.25;92.64;101617.19;4899416;29;20056;-69
2021/03/09 05:54:45;;;;;;;51.30;24.40;;;8.10;99.90;;;8.29;92.53;101611.13;4916177;29;20123;-69
2021/03/09 05:57:13;;;;;;;42.20;23.75;;;8.10;99.90;;;8.33;92.64;101612.94;4916265;29;20092;-69
2021/03/09 05:59:41;;;;;;;52.30;26.35;;;8.10;99.90;;;8.26;92.08;101618.09;4915908;29;20044;-69
2021/03/09 06:02:09;;;;;;;43.75;24.92;;;8.10;99.90;;;8.33;91.91;101586.59;4915686;29;20482;-70
2021/03/09 06:04:38;;;;;;;43.10;25.42;;;8.20;99.90;;;8.35;91.57;101600.69;4916095;29;20054;-70
2021/03/09 06:07:05;;;;;;;47.67;27.23;;;8.20;99.90;;;8.47;91.82;101615.81;4916041;29;20052;-70
2021/03/09 06:09:40;;;;;;;51.60;25.77;;;8.30;99.90;;;8.61;91.19;101645.94;4918119;29;20063;-70
2021/03/09 06:12:15;;;;;;;53.53;27.25;;;8.30;99.90;;;8.62;91.06;101627.50;4902442;29;20052;-70
2021/03/09 06:14:45;;;;;;;47.70;26.75;;;8.30;99.90;;;8.56;90.95;101626.50;4919421;29;20402;-70
2021/03/09 06:17:14;;;;;;;51.13;26.13;;;8.30;99.90;;;8.74;90.90;101621.50;4918889;29;20067;-70
2021/03/09 06:19:47;;;;;;;56.33;25.70;;;8.40;99.90;;;8.72;90.49;101623.25;4902392;29;20658;-70
2021/03/09 06:22:16;;;;;;;52.90;24.83;;;8.50;99.90;;;8.77;90.15;101622.44;4919388;29;20300;-70
2021/03/09 06:24:45;;;;;;;44.72;23.50;;;8.50;99.90;;;8.59;90.45;101626.56;4918916;29;20048;-69
2021/03/09 06:27:29;;;;;;;57.85;25.90;;;8.40;99.90;;;8.30;89.98;101543.50;4918858;29;20127;-69
2021/03/09 06:29:58;;;;;;;55.88;25.45;;;8.50;99.90;;;8.69;90.53;101623.22;4918891;29;20048;-70
2021/03/09 06:32:26;;;;;;;48.90;26.27;;;8.50;99.90;;;8.69;90.79;101624.06;4901742;29;20111;-70
2021/03/09 06:34:55;;;;;;;59.45;28.73;;;8.50;99.90;;;8.69;90.83;101623.22;4919085;29;20044;-72
2021/03/09 06:37:25;;;;;;;59.70;27.38;;;8.50;99.90;;;8.43;90.84;101606.06;4918736;29;20064;-73
2021/03/09 06:39:56;;;;;;;63.25;25.45;;;8.30;99.90;;;8.59;91.26;101623.91;4919006;29;20095;-73
2021/03/09 06:42:27;;;;;;;53.63;27.23;;;8.30;99.90;;;8.55;90.85;101620.34;4918737;29;20084;-71
2021/03/09 06:44:58;;;;;;;49.47;24.98;;;8.30;99.90;;;8.72;90.45;101624.13;4918650;29;20096;-73
2021/03/09 06:47:34;;;;;;;51.83;22.50;;;8.40;99.90;;;8.23;90.03;101531.06;4918611;29;20044;-72
2021/03/09 06:50:06;;;;;;;48.33;21.67;;;8.50;99.90;;;8.14;90.29;101542.34;4918621;29;20052;-72
2021/03/09 06:52:34;;;;;;;48.58;20.95;;;8.40;99.90;;;8.68;90.65;101637.25;4901982;29;20115;-72
2021/03/09 06:55:03;;;;;;;43.53;19.30;;;8.40;99.90;;;8.59;90.46;101632.72;4918568;29;20055;-72
2021/03/09 06:57:30;;;;;;;36.10;17.00;;;8.40;99.90;;;8.85;89.77;101626.09;4901392;29;20052;-72
2021/03/09 06:59:57;;;;;;;31.02;16.42;;;8.60;99.90;;;8.74;88.67;101632.97;4918453;29;20048;-73
2021/03/09 07:02:26;;;;;;;37.88;15.40;;;8.60;99.90;;;8.49;88.74;101607.06;4918466;29;20052;-72
2021/03/09 07:05:03;;;;;;;26.85;14.30;;;8.40;99.90;;;8.94;88.69;101635.91;4918288;29;20459;-73
2021/03/09 07:07:33;;;;;;;28.88;12.85;;;8.60;99.90;;;9.01;87.83;101648.28;4918332;29;20494;-72
2021/03/09 07:10:07;;;;;;;25.67;11.80;;;8.70;99.90;;;8.86;87.51;101648.97;4918579;29;20410;-72
2021/03/09 07:12:36;;;;;;;26.23;13.07;;;8.70;99.90;;;8.77;87.59;101645.28;4901196;29;20052;-72
2021/03/09 07:15:07;;;;;;;29.00;11.75;;;8.60;99.90;;;8.80;87.73;101654.16;4918272;29;20482;-73
2021/03/09 07:17:37;;;;;;;26.42;12.35;;;8.60;99.90;;;8.86;88.05;101656.88;4918249;29;20107;-73
2021/03/09 07:20:08;;;;;;;27.45;10.75;;;8.70;99.90;;;8.80;87.86;101658.53;4901059;29;20059;-72
2021/03/09 07:22:53;;;;;;;28.88;11.77;;;8.60;99.90;;;8.85;87.81;101659.47;4901039;29;20083;-72
2021/03/09 07:25:21;;;;;;;26.95;11.35;;;8.60;99.90;;;8.73;87.98;101648.78;4900966;29;20127;-73
2021/03/09 07:27:58;;;;;;;24.98;10.45;;;8.60;99.90;;;8.84;88.14;101663.00;4918031;29;20048;-72
2021/03/09 07:30:29;;;;;;;22.02;9.80;;;8.60;99.90;;;8.88;88.45;101668.31;4917953;29;20414;-73
2021/03/09 07:32:57;;;;;;;;;;;8.60;99.90;;;9.02;88.06;101671.16;4918474;29;20142;-72
2021/03/09 07:35:28;;;;;;;24.27;9.02;;;8.80;99.90;;;8.75;88.16;101669.00;4917744;29;19958;-73
2021/03/09 07:37:56;;;;;;;19.88;8.60;;;8.60;99.90;;;8.71;88.36;101668.94;4917591;29;20104;-72
2021/03/09 07:40:25;;;;;;;25.02;9.13;;;8.60;99.90;;;8.68;88.74;101667.16;4917571;29;20048;-73
2021/03/09 07:42:53;;;;;;;16.35;8.35;;;8.50;99.90;;;8.69;89.26;101673.31;4917481;29;20071;-73
2021/03/09 07:45:26;;;;;;;21.77;8.48;;;8.50;99.90;;;8.68;89.30;101668.88;4917691;29;20118;-73
2021/03/09 07:47:56;;;;;;;17.58;7.95;;;8.50;99.90;;;8.81;88.92;101679.66;4918064;29;20052;-72
2021/03/09 07:50:31;;;;;;;20.90;8.25;;;8.50;99.90;;;8.74;89.10;101672.53;4917316;29;20108;-72
2021/03/09 07:53:09;;;;;;;18.98;8.05;;;8.50;99.90;;;8.63;89.94;101676.72;4917677;29;20048;-73
2021/03/09 07:55:37;;;;;;;14.82;8.02;;;8.40;99.90;;;8.84;89.72;101676.19;4917430;29;20048;-73
2021/03/09 07:58:23;;;;;;;21.02;7.95;;;8.50;99.90;;;8.48;89.65;101644.81;4917414;29;20052;-72
2021/03/09 08:00:57;;;;;;;18.90;8.25;;;8.50;99.90;;;8.70;90.20;101681.25;4917333;29;20067;-72
2021/03/09 08:03:26;;;;;;;20.55;8.73;;;8.40;99.90;;;8.50;90.67;101681.75;4900388;29;20055;-73
2021/03/09 08:05:59;;;;;;;17.85;8.05;;;8.30;99.90;;;8.70;90.76;101680.34;4917320;29;20074;-72
2021/03/09 08:08:46;;;;;;;18.27;8.20;;;8.40;99.90;;;8.87;90.62;101665.66;4917294;29;20380;-73
2021/03/09 08:11:37;;;;;;;23.10;8.80;;;8.60;99.90;;;8.88;89.56;101683.28;4900124;29;20056;-72
2021/03/09 08:14:24;;;;;;;17.25;7.80;;;8.70;99.90;;;8.78;89.43;101676.09;4917279;29;20051;-72
2021/03/09 08:16:51;;;;;;;14.85;7.78;;;8.60;99.90;;;8.71;89.59;101676.88;4916905;29;20107;-73
2021/03/09 08:19:42;;;;;;;17.67;8.68;;;8.50;99.90;;;8.85;90.05;101685.84;4917002;29;20040;-74
2021/03/09 08:22:11;;;;;;;22.42;8.38;;;8.60;99.90;;;8.75;89.06;101681.34;4917357;29;20495;-69
2021/03/09 08:24:58;;;;;;;16.75;8.93;;;8.60;99.90;;;8.91;89.56;101693.88;4931576;29;20048;-72
2021/03/09 08:27:46;;;;;;;44.55;20.85;;;8.70;99.90;;;9.00;89.20;101694.03;4918954;29;20047;-73
2021/03/09 08:30:40;;;;;;;13.75;9.68;;;8.70;99.90;;;9.06;88.37;101688.81;4930346;29;20067;-72
2021/03/09 08:33:26;;;;;;;209.80;105.68;;;8.80;99.90;;;9.12;88.83;101694.19;4935487;29;20051;-72
2021/03/09 08:35:54;;;;;;;14.10;7.95;;;8.80;99.90;;;8.61;88.27;101611.66;4936159;29;20094;-71
2021/03/09 08:38:25;;;;;;;10.85;7.07;;;8.90;99.90;;;9.13;87.97;101693.34;4935652;29;20098;-70
2021/03/09 08:41:17;;;;;;;11.50;6.45;;;8.90;99.90;;;9.25;87.73;101695.28;4918802;29;20142;-71
2021/03/09 08:43:44;;;;;;;8.90;6.13;;;9.00;99.90;;;8.82;88.40;101697.28;4918578;29;20044;-70
2021/03/09 08:46:14;;;;;;;9.20;6.10;;;8.70;99.90;;;8.74;89.08;101698.00;4935472;29;20052;-70
2021/03/09 08:48:44;;;;;;;12.30;6.25;;;8.60;99.90;;;8.81;89.33;101702.50;4935443;29;20079;-70
2021/03/09 08:51:44;;;;;;;6.63;5.70;;;8.60;99.90;;;8.64;89.08;101699.59;4935694;29;20043;-70
2021/03/09 08:54:18;;;;;;;5.93;5.27;;;8.50;99.90;;;8.94;88.69;101696.56;4935673;29;20438;-70
2021/03/09 08:56:46;;;;;;;7.18;5.72;;;8.70;99.90;;;8.56;88.34;101676.59;4935966;29;20047;-70
2021/03/09 08:59:13;;;;;;;6.60;5.53;;;8.60;99.90;;;8.61;88.83;101689.03;4918325;29;20110;-70
2021/03/09 09:01:41;;;;;;;8.65;5.95;;;8.50;99.90;;;8.70;88.97;101689.16;4918443;29;20402;-70
2021/03/09 09:04:16;;;;;;;8.95;6.07;;;8.50;99.90;;;8.71;88.88;101658.41;4935263;29;20044;-70
2021/03/09 09:06:43;;;;;;;8.57;6.32;;;8.60;99.90;;;9.05;88.47;101694.97;4935753;29;20052;-69
2021/03/09 09:09:11;;;;;;;8.02;5.70;;;8.80;99.90;;;8.84;87.95;101674.44;4935337;29;20505;-70
2021/03/09 09:11:40;;;;;;;10.27;6.07;;;8.80;99.90;;;8.97;88.67;101693.97;4935273;29;20055;-70
2021/03/09 09:14:18;;;;;;;8.23;6.25;;;8.70;99.90;;;9.07;88.68;101696.78;4935380;29;20520;-70
2021/03/09 09:16:47;;;;;;;9.40;6.68;;;8.80;99.90;;;9.32;88.38;101705.03;4934969;29;20059;-70
2021/03/09 09:19:14;;;;;;;10.25;6.57;;;9.00;99.90;;;9.30;87.54;101696.22;4935353;29;20052;-70
2021/03/09 09:21:47;;;;;;;8.25;5.90;;;9.10;99.90;;;8.93;86.92;101620.91;4918280;29;20083;-70
2021/03/09 09:24:20;;;;;;;6.80;5.65;;;9.20;99.90;;;9.45;86.05;101704.34;4917950;29;20056;-70
2021/03/09 09:27:00;;;;;;;8.25;5.65;;;9.30;99.90;;;9.13;87.01;101700.38;4918277;29;20055;-70
2021/03/09 09:29:27;;;;;;;6.60;5.13;;;9.00;99.90;;;8.94;86.36;101710.63;4935020;29;20043;-70
2021/03/09 09:32:00;;;;;;;6.53;5.25;;;8.90;99.90;;;8.90;85.94;101710.59;4935331;29;20055;-70
2021/03/09 09:34:37;;;;;;;7.88;5.80;;;8.80;99.90;;;8.99;86.10;101718.63;4918141;29;20071;-70
2021/03/09 09:37:16;;;;;;;7.45;5.15;;;8.80;99.90;;;8.78;85.63;101707.75;4935196;29;20228;-70
2021/03/09 09:39:43;;;;;;;8.35;5.60;;;8.70;99.90;;;8.72;86.24;101715.53;4935159;29;20106;-72
2021/03/09 09:42:16;;;;;;;8.05;4.75;;;8.60;99.90;;;8.21;85.28;101587.25;4935166;29;20589;-71
2021/03/09 09:44:45;;;;;;;73.10;35.72;;;8.70;99.90;;;9.17;85.32;101708.38;4938635;29;20497;-68
2021/03/09 09:47:15;;;;;;;411.95;202.38;;;8.90;99.90;;;9.39;85.79;101709.56;4938718;29;20497;-70
2021/03/09 09:49:44;;;;;;;7.13;5.67;;;9.20;99.90;;;9.24;84.56;101657.41;4938676;29;20565;-74
2021/03/09 09:52:14;;;;;;;5.75;4.30;;;9.30;99.90;;;9.33;83.73;101710.34;4938545;29;20565;-72
2021/03/09 09:54:53;;;;;;;6.43;4.72;;;9.10;99.90;;;9.58;83.69;101707.16;4921607;29;20060;-72
2021/03/09 09:57:22;;;;;;;9.45;4.85;;;9.30;99.90;;;9.48;83.42;101730.81;4938437;29;20127;-73
2021/03/09 09:59:50;;;;;;;8.68;5.35;;;9.20;99.90;;;9.69;82.98;101715.22;4938611;29;20078;-72
2021/03/09 10:02:23;;;;;;;4.78;3.88;;;9.40;99.90;;;9.84;81.44;101710.13;4938305;29;20055;-72
2021/03/09 10:04:52;;;;;;;4.68;4.28;;;9.60;99.90;;;9.84;80.90;101695.19;4938623;29;20075;-71
2021/03/09 10:07:22;;;;;;;5.57;4.88;;;9.70;99.90;;;9.70;80.06;101702.03;4938258;29;20451;-70
2021/03/09 10:10:07;;;;;;;8.48;3.85;;;9.60;99.90;;;9.54;79.03;101697.41;4938244;29;20044;-73
2021/03/09 10:12:45;;;;;;;4.85;3.42;;;9.40;99.90;;;9.47;78.00;101699.97;4938411;29;20079;-76
2021/03/09 10:15:13;;;;;;;4.18;3.70;;;9.40;99.90;;;9.67;77.58;101709.03;4938626;29;20059;-73
2021/03/09 10:17:41;;;;;;;5.18;3.45;;;9.40;99.90;;;9.73;76.63;101699.44;4938433;29;20063;-72
2021/03/09 10:20:20;;;;;;;3.45;3.08;;;9.60;99.90;;;9.85;75.77;101709.28;4938073;29;20405;-71
2021/03/09 10:22:51;;;;;;;3.53;3.22;;;9.60;99.90;;;9.72;75.83;101687.09;4938009;29;20047;-66
2021/03/09 10:25:20;;;;;;;3.40;3.20;;;9.60;99.90;;;9.78;73.88;101676.59;4938054;29;20043;-86
2021/03/09 10:28:01;;;;;;;3.75;3.40;;;9.80;99.90;;;10.11;74.42;101699.00;4920805;29;20083;-71
2021/03/09 10:30:36;;;;;;;;;;;9.90;99.90;;;10.20;73.84;101700.00;4921361;29;20056;-73
2021/03/09 10:33:09;;;;;;;4.97;3.25;;;10.00;99.90;;;10.13;72.86;101676.13;4937856;29;19923;-73